Time;durP1;ratioP1;P1;durP2;ratioP2;P2;SDS_P1;SDS_P2;PMS_P1;PMS_P2;Temp;Humidity;BMP_temperature;BMP_pressure;BME280_temperature;BME280_humidity;BME280_pressure;Samples;Min_cycle;Max_cycle;Signal;HPM_P1;HPM_P2
2023/01/04 00:02:13;;;;;;;31.65;18.65;;;16.80;80.50;;;18.14;45.03;100005.50;5029994;28;20431;-78
2023/01/04 00:04:39;;;;;;;27.83;17.70;;;16.70;80.40;;;18.10;44.99;100001.69;5062789;28;20041;-78
2023/01/04 00:07:05;;;;;;;21.77;16.42;;;16.70;80.50;;;18.11;45.09;99991.53;5046696;28;20033;-78
2023/01/04 00:09:31;;;;;;;29.13;19.58;;;16.70;80.20;;;18.13;44.98;99994.81;5013303;28;20037;-78
2023/01/04 00:11:57;;;;;;;26.25;18.38;;;16.80;80.30;;;18.10;44.99;100009.13;5032703;28;20037;-78
2023/01/04 00:14:23;;;;;;;25.17;18.20;;;16.80;80.20;;;18.06;45.24;100003.38;5014293;28;20033;-78
2023/01/04 00:16:49;;;;;;;27.52;18.80;;;16.70;80.20;;;18.07;45.31;100004.22;5028524;28;20457;-78
2023/01/04 00:19:15;;;;;;;30.45;19.33;;;16.70;80.10;;;18.07;45.05;100004.22;5034152;28;20043;-78
2023/01/04 00:21:41;;;;;;;29.23;18.52;;;16.60;80.20;;;18.07;45.09;100007.78;5059424;28;20141;-78
2023/01/04 00:24:09;;;;;;;29.05;19.40;;;16.60;81.30;;;18.03;45.19;100014.97;5050260;28;20427;-78
2023/01/04 00:26:35;;;;;;;30.17;19.30;;;16.60;80.30;;;18.04;45.17;100010.28;5033692;28;20041;-78
2023/01/04 00:29:05;;;;;;;27.30;19.25;;;16.70;80.30;;;18.00;45.19;100007.31;5030319;28;20048;-78
2023/01/04 00:31:31;;;;;;;31.38;19.02;;;16.70;80.30;;;18.05;44.92;100004.50;5017645;28;20169;-78
2023/01/04 00:33:59;;;;;;;29.35;19.55;;;16.70;80.30;;;18.01;44.76;100000.69;5013247;28;20478;-78
2023/01/04 00:36:26;;;;;;;30.00;19.35;;;16.70;80.00;;;18.00;45.00;99997.16;5012140;28;20492;-78
2023/01/04 00:39:08;;;;;;;31.77;19.05;;;16.60;80.10;;;18.00;44.84;99996.34;5045506;28;20152;-78
2023/01/04 00:41:51;;;;;;;29.55;19.80;;;16.70;80.10;;;17.99;44.83;99995.53;5023770;28;20048;-78
2023/01/04 00:44:20;;;;;;;31.08;19.77;;;16.60;80.20;;;17.99;44.96;100001.03;5016890;28;20491;-78
2023/01/04 00:46:46;;;;;;;29.60;19.52;;;16.60;80.30;;;17.99;45.03;100003.75;5069249;28;20063;-78
2023/01/04 00:49:13;;;;;;;30.02;20.17;;;16.50;80.20;;;17.93;44.80;100002.16;5037674;28;20037;-78
2023/01/04 00:51:40;;;;;;;26.15;18.95;;;16.60;80.30;;;17.97;45.03;100007.91;4994664;28;20049;-78
2023/01/04 00:54:08;;;;;;;32.47;20.58;;;16.60;80.10;;;17.94;45.12;100003.81;5011875;28;20191;-78
2023/01/04 00:56:34;;;;;;;28.83;19.38;;;16.50;80.30;;;17.94;44.83;100003.81;5024380;28;20427;-78
2023/01/04 00:59:01;;;;;;;30.73;20.38;;;16.60;80.30;;;17.99;44.86;99994.72;5013135;28;20876;-78
2023/01/04 01:01:28;;;;;;;27.88;19.85;;;16.60;80.00;;;17.95;45.20;99996.41;5014067;28;20090;-78
2023/01/04 01:03:56;;;;;;;26.08;19.08;;;16.60;80.10;;;17.98;44.93;100001.28;5021130;28;20047;-78
2023/01/04 01:06:23;;;;;;;31.00;21.30;;;16.60;80.00;;;17.99;44.84;99995.53;5020580;28;20043;-78
2023/01/04 01:08:51;;;;;;;28.60;19.00;;;16.60;80.00;;;17.97;45.23;99989.50;5018782;28;20380;-78
2023/01/04 01:11:17;;;;;;;27.85;20.35;;;16.60;80.50;;;17.91;45.17;99987.09;5041394;28;20044;-78
2023/01/04 01:13:43;;;;;;;27.30;18.90;;;16.60;80.30;;;17.93;45.43;99991.19;5022004;28;20044;-78
2023/01/04 01:16:15;;;;;;;29.88;20.75;;;16.60;80.20;;;17.90;45.25;99990.97;5040333;28;20407;-78
2023/01/04 01:18:42;;;;;;;33.60;21.08;;;16.60;80.20;;;17.91;45.23;99982.47;5040347;28;20041;-78
2023/01/04 01:21:20;;;;;;;29.52;19.35;;;16.60;80.00;;;17.91;45.12;99985.19;5039348;28;20119;-78
2023/01/04 01:23:46;;;;;;;28.35;19.80;;;16.60;80.20;;;17.92;45.00;99989.56;5024875;28;20183;-78
2023/01/04 01:26:16;;;;;;;30.75;20.33;;;16.60;80.40;;;17.92;45.19;99988.75;5020594;28;20040;-79
2023/01/04 01:28:42;;;;;;;32.65;20.95;;;16.50;80.60;;;17.85;45.49;99994.59;5041208;28;20469;-78
2023/01/04 01:31:12;;;;;;;30.20;18.40;;;16.50;80.60;;;17.87;45.27;99997.88;5020876;28;20040;-78
2023/01/04 01:33:39;;;;;;;30.42;19.50;;;16.50;80.50;;;17.87;45.29;99986.88;5041757;28;20131;-78
2023/01/04 01:36:06;;;;;;;27.45;19.63;;;16.50;80.60;;;17.85;45.57;99978.13;5022937;28;20039;-79
2023/01/04 01:38:32;;;;;;;34.17;20.77;;;16.40;80.60;;;17.89;45.25;99978.38;5020133;28;20049;-78
2023/01/04 01:40:58;;;;;;;27.98;20.08;;;16.50;80.60;;;17.86;45.17;99979.78;5040381;28;20048;-78
2023/01/04 01:43:45;;;;;;;28.50;19.10;;;16.60;80.50;;;17.88;45.19;99971.22;5037673;28;20665;-79
2023/01/04 01:46:11;;;;;;;28.15;19.70;;;16.50;80.60;;;17.78;45.29;99983.94;5058731;28;20496;-78
2023/01/04 01:48:37;;;;;;;28.35;19.00;;;16.50;80.50;;;17.83;45.03;99988.56;5027065;28;20063;-78
2023/01/04 01:51:03;;;;;;;29.00;20.27;;;16.50;80.30;;;17.82;45.26;99975.97;5023043;28;20036;-78
2023/01/04 01:53:32;;;;;;;30.83;21.00;;;16.50;80.60;;;17.84;45.16;99987.47;5019630;28;20505;-78
2023/01/04 01:55:58;;;;;;;32.13;19.90;;;16.40;80.50;;;17.81;45.45;99990.81;5041628;28;20821;-78
2023/01/04 01:58:28;;;;;;;26.52;19.95;;;16.40;80.50;;;17.84;45.25;99983.94;5024219;28;20041;-78
2023/01/04 02:00:54;;;;;;;28.67;19.85;;;16.50;80.40;;;17.85;45.29;99983.63;5036829;28;20045;-78
2023/01/04 02:03:21;;;;;;;27.92;20.45;;;16.50;80.40;;;17.84;45.28;99984.72;5031568;28;20121;-78
2023/01/04 02:05:51;;;;;;;31.67;20.73;;;16.50;80.40;;;17.84;45.14;99997.66;5004234;28;20044;-78
2023/01/04 02:08:18;;;;;;;33.63;22.63;;;16.50;80.20;;;17.79;45.27;99995.75;5031159;28;20048;-78
2023/01/04 02:10:44;;;;;;;36.58;21.50;;;16.50;80.30;;;17.81;45.11;99993.56;5037457;28;20066;-78
2023/01/04 02:13:12;;;;;;;31.88;20.85;;;16.40;80.40;;;17.81;45.10;99987.22;5033386;28;20036;-79
2023/01/04 02:15:55;;;;;;;32.22;21.77;;;16.40;80.50;;;17.81;45.27;99995.47;5040925;28;20124;-78
2023/01/04 02:18:27;;;;;;;30.15;20.63;;;16.40;80.40;;;17.85;45.21;99985.53;5021131;28;20541;-79
2023/01/04 02:21:03;;;;;;;29.80;20.30;;;16.50;80.50;;;17.81;45.57;99990.81;5035217;28;20048;-79
2023/01/04 02:23:40;;;;;;;31.70;20.27;;;16.60;80.40;;;17.77;45.26;99995.22;5010969;28;20076;-78
2023/01/04 02:27:07;;;;;;;28.48;19.70;;;16.50;80.60;;;17.80;45.27;99980.94;5065501;28;20056;-79
2023/01/04 02:30:14;;;;;;;25.20;18.23;;;16.40;80.50;;;17.75;45.26;99987.25;4966186;28;20046;-78
2023/01/04 02:33:12;;;;;;;29.38;20.25;;;16.40;80.40;;;17.76;45.30;99979.88;5053488;28;20471;-78
2023/01/04 02:35:56;;;;;;;27.23;20.13;;;16.40;80.50;;;17.75;45.40;99976.28;5048021;28;20354;-78
2023/01/04 02:38:53;;;;;;;29.65;20.08;;;16.40;80.50;;;17.77;45.26;99976.00;5056269;28;20036;-78
2023/01/04 02:41:31;;;;;;;30.98;21.90;;;16.40;80.50;;;17.76;45.27;99971.63;5052283;28;20052;-78
2023/01/04 02:46:54;;;;;;;29.20;21.27;;;16.40;80.50;;;17.77;45.42;99967.78;5056789;28;20041;-78
2023/01/04 02:52:05;;;;;;;30.23;19.95;;;16.40;80.50;;;17.77;45.25;99960.34;5038161;28;20127;-78
2023/01/04 02:54:32;;;;;;;31.60;22.48;;;16.50;80.40;;;17.72;45.21;99960.41;5019871;28;20182;-78
2023/01/04 02:57:10;;;;;;;28.95;19.92;;;16.40;80.50;;;17.70;45.44;99962.63;5004501;28;20048;-79
2023/01/04 03:00:12;;;;;;;31.33;19.90;;;16.40;80.50;;;17.73;45.22;99961.22;5070816;28;20061;-78
2023/01/04 03:06:15;;;;;;;34.88;21.17;;;16.40;80.50;;;17.70;45.24;99940.66;5058861;28;20067;-79
2023/01/04 03:08:53;;;;;;;28.35;19.27;;;16.40;80.40;;;17.68;45.13;99939.31;5049954;28;20469;-79
2023/01/04 03:14:17;;;;;;;32.30;22.25;;;16.40;80.40;;;17.71;45.16;99933.28;5039187;28;20040;-79
2023/01/04 03:16:43;;;;;;;29.80;20.55;;;16.40;80.30;;;17.67;45.09;99938.53;5032149;28;20044;-78
2023/01/04 03:19:10;;;;;;;30.75;20.17;;;16.30;80.40;;;17.69;45.40;99930.81;5022244;28;20052;-78
2023/01/04 03:21:38;;;;;;;30.42;20.50;;;16.30;80.40;;;17.71;45.42;99933.28;5050758;28;20040;-79
2023/01/04 03:35:46;;;;;;;27.30;19.83;;;16.30;80.40;;;17.68;45.19;99926.44;5031621;28;20048;-78
2023/01/04 03:48:33;;;;;;;31.70;21.15;;;16.30;80.00;;;17.63;45.30;99926.50;4984809;28;20038;-79
2023/01/04 03:51:19;;;;;;;30.35;20.50;;;16.30;80.20;;;17.66;45.10;99927.84;5057848;28;20056;-78
2023/01/04 03:54:10;;;;;;;32.28;20.45;;;16.30;80.40;;;17.65;45.40;99920.72;5022372;28;20045;-78
2023/01/04 03:56:40;;;;;;;31.08;20.45;;;16.30;80.60;;;17.67;45.25;99915.75;5030379;28;20044;-78
2023/01/04 03:59:06;;;;;;;28.52;20.50;;;16.20;80.60;;;17.61;45.38;99912.25;5018367;28;20055;-78
2023/01/04 04:01:33;;;;;;;33.80;20.98;;;16.30;80.40;;;17.62;45.34;99907.59;5036979;28;20032;-78
2023/01/04 04:09:29;;;;;;;30.70;20.45;;;16.20;80.30;;;17.58;44.92;99905.44;5050269;28;20072;-78
2023/01/04 04:11:55;;;;;;;28.92;19.30;;;16.20;80.30;;;17.56;45.13;99906.84;5018015;28;20052;-78
2023/01/04 04:14:21;;;;;;;28.10;19.55;;;16.20;80.30;;;17.56;45.23;99907.66;5019117;28;20030;-78
2023/01/04 04:16:47;;;;;;;27.63;19.88;;;16.20;80.30;;;17.60;45.01;99904.31;5022594;28;20040;-78
2023/01/04 04:19:13;;;;;;;29.60;19.60;;;16.20;80.30;;;17.55;45.17;99894.22;5032820;28;20169;-78
2023/01/04 04:21:39;;;;;;;27.15;19.98;;;16.20;80.30;;;17.55;45.05;99895.06;5005592;28;20048;-78
2023/01/04 04:24:06;;;;;;;33.63;22.65;;;16.20;80.30;;;17.53;45.40;99893.72;5000588;28;20108;-79
2023/01/04 04:26:32;;;;;;;31.75;20.15;;;16.10;80.20;;;17.53;45.19;99899.19;5017188;28;20121;-78
2023/01/04 04:28:58;;;;;;;29.80;20.27;;;16.20;80.30;;;17.56;45.16;99887.63;5016495;28;20083;-78
2023/01/04 04:31:24;;;;;;;31.58;20.85;;;16.20;80.30;;;17.58;45.15;99894.47;5006090;28;20044;-78
2023/01/04 04:33:50;;;;;;;28.40;19.50;;;16.10;80.20;;;17.58;45.17;99893.66;5034280;28;20097;-78
2023/01/04 04:36:16;;;;;;;29.27;20.30;;;16.20;80.10;;;17.50;45.37;99886.88;5022100;28;20502;-78
2023/01/04 04:38:42;;;;;;;26.35;19.50;;;16.20;80.30;;;17.51;45.17;99890.44;5049835;28;20044;-78
2023/01/04 04:43:54;;;;;;;29.88;21.02;;;16.20;79.10;;;17.50;43.69;99900.59;5050977;28;20061;-78
2023/01/04 04:46:20;;;;;;;28.50;20.58;;;16.10;78.40;;;17.46;44.37;99891.31;5035661;28;20065;-79
2023/01/04 04:48:46;;;;;;;27.95;20.05;;;16.00;78.70;;;17.47;44.46;99884.72;5015712;28;20051;-79
2023/01/04 04:51:13;;;;;;;29.27;20.17;;;16.10;79.10;;;17.48;44.28;99886.38;5026234;28;20045;-79
2023/01/04 04:53:39;;;;;;;29.15;19.73;;;16.00;79.10;;;17.50;44.16;99875.06;5005084;28;20128;-79
2023/01/04 04:56:06;;;;;;;28.65;19.60;;;16.10;79.30;;;17.46;44.43;99877.59;5048355;28;20119;-78
2023/01/04 04:58:32;;;;;;;31.42;18.92;;;16.10;79.30;;;17.45;44.69;99862.25;5005225;28;20047;-78
2023/01/04 05:00:58;;;;;;;25.73;20.45;;;16.10;79.40;;;17.48;44.28;99867.16;5032733;28;20119;-78
2023/01/04 05:03:24;;;;;;;30.65;20.75;;;16.10;79.50;;;17.48;44.55;99864.41;5034033;28;20147;-78
2023/01/04 05:05:50;;;;;;;27.70;19.33;;;16.00;79.40;;;17.46;44.72;99861.16;5020483;28;20040;-78
2023/01/04 05:08:16;;;;;;;26.25;19.13;;;16.10;79.60;;;17.41;44.70;99847.50;5038199;28;20040;-79
2023/01/04 05:10:42;;;;;;;27.77;19.52;;;16.10;79.40;;;17.43;44.65;99842.53;5049109;28;20593;-78
2023/01/04 05:13:11;;;;;;;28.38;19.02;;;16.10;79.40;;;17.44;44.75;99829.63;5036127;28;20037;-78
2023/01/04 05:15:41;;;;;;;30.08;20.33;;;16.10;79.40;;;17.43;44.59;99826.09;5034249;28;20397;-78
2023/01/04 05:18:08;;;;;;;32.15;19.92;;;16.10;79.30;;;17.44;44.50;99824.16;5018617;28;20037;-78
2023/01/04 05:20:34;;;;;;;29.55;19.35;;;16.00;79.40;;;17.44;44.66;99819.47;5006956;28;20123;-78
2023/01/04 05:23:00;;;;;;;28.75;18.08;;;16.10;79.60;;;17.43;44.57;99823.34;5022987;28;20045;-78
2023/01/04 05:25:26;;;;;;;27.77;18.77;;;16.10;79.40;;;17.44;44.51;99835.94;5024005;28;20044;-78
2023/01/04 05:27:52;;;;;;;30.83;20.65;;;16.00;79.40;;;17.43;44.96;99834.31;5054907;28;20043;-78
2023/01/04 05:33:03;;;;;;;26.67;18.55;;;16.00;79.70;;;17.42;44.69;99840.88;5056472;28;20085;-78
2023/01/04 05:35:30;;;;;;;28.63;19.60;;;16.00;79.60;;;17.43;44.78;99847.19;5035205;28;20055;-78
2023/01/04 05:37:56;;;;;;;29.90;19.48;;;16.00;79.70;;;17.42;44.57;99842.81;5019401;28;20054;-78
2023/01/04 05:40:22;;;;;;;28.20;21.27;;;16.00;79.50;;;17.38;44.56;99845.34;5053182;28;20040;-78
2023/01/04 05:42:48;;;;;;;26.45;17.85;;;16.00;79.60;;;17.40;44.77;99850.50;5051888;28;20039;-78
2023/01/04 05:45:15;;;;;;;24.20;17.90;;;16.00;79.70;;;17.38;44.86;99844.50;5038543;28;20041;-78
2023/01/04 05:47:41;;;;;;;27.13;19.45;;;15.90;79.60;;;17.36;45.04;99848.38;5020410;28;20044;-78
2023/01/04 05:50:08;;;;;;;26.85;18.92;;;16.00;79.70;;;17.37;44.79;99843.69;5024245;28;20044;-78
2023/01/04 05:52:34;;;;;;;28.83;20.15;;;16.00;79.60;;;17.38;44.71;99837.13;5014125;28;20127;-78
2023/01/04 05:55:01;;;;;;;29.15;19.27;;;16.00;79.50;;;17.40;44.88;99834.06;5034550;28;20037;-78
2023/01/04 05:57:27;;;;;;;27.00;19.23;;;16.00;79.60;;;17.42;44.79;99834.59;5011346;28;20091;-78
2023/01/04 05:59:53;;;;;;;26.85;18.23;;;15.90;80.00;;;17.43;44.98;99844.44;5002036;28;20041;-77
2023/01/04 06:02:22;;;;;;;29.33;19.70;;;16.00;80.10;;;17.48;45.14;99847.97;5017162;28;20373;-78
2023/01/04 06:04:48;;;;;;;29.05;18.90;;;16.00;80.30;;;17.42;44.85;99845.56;5050357;28;20123;-78
2023/01/04 06:07:14;;;;;;;23.98;17.92;;;16.00;80.10;;;17.38;45.37;99850.84;5035727;28;20036;-77
2023/01/04 06:09:41;;;;;;;31.35;21.88;;;16.00;80.20;;;17.36;45.25;99847.56;5035825;28;20510;-78
2023/01/04 06:12:07;;;;;;;27.08;19.50;;;15.90;80.30;;;17.38;45.51;99834.38;5015505;28;20455;-77
2023/01/04 06:14:33;;;;;;;28.23;19.35;;;15.90;81.40;;;17.42;45.03;99827.19;5031757;28;20473;-77
2023/01/04 06:16:59;;;;;;;27.42;19.00;;;16.00;80.30;;;17.34;45.48;99833.31;5029532;28;20120;-77
2023/01/04 06:19:26;;;;;;;29.00;19.30;;;16.00;80.40;;;17.35;45.29;99833.03;5015656;28;20844;-78
2023/01/04 06:21:52;;;;;;;28.85;19.90;;;15.90;80.50;;;17.38;45.07;99828.88;5019733;28;20048;-78
2023/01/04 06:24:18;;;;;;;26.70;18.63;;;15.90;80.40;;;17.37;45.08;99816.28;5032153;28;20395;-78
2023/01/04 06:26:45;;;;;;;31.13;19.23;;;16.00;80.10;;;17.32;44.97;99811.66;5036074;28;20100;-78
2023/01/04 06:29:11;;;;;;;25.20;17.75;;;16.00;80.10;;;17.36;44.97;99807.22;5036434;28;20043;-78
2023/01/04 06:31:37;;;;;;;24.83;18.45;;;16.00;80.10;;;17.38;45.01;99808.84;5050678;28;20054;-78
2023/01/04 06:34:03;;;;;;;26.42;19.30;;;16.00;80.10;;;17.36;45.22;99806.41;5029476;28;20037;-78
2023/01/04 06:36:29;;;;;;;26.08;18.70;;;15.90;80.20;;;17.35;45.31;99804.78;5035103;28;20101;-77
2023/01/04 06:38:57;;;;;;;28.10;18.48;;;15.90;80.40;;;17.39;45.28;99803.09;5044744;28;20454;-78
2023/01/04 06:41:23;;;;;;;28.08;17.95;;;15.90;80.80;;;17.35;45.15;99799.28;5020212;28;20080;-78
2023/01/04 06:43:50;;;;;;;24.27;17.40;;;15.90;80.50;;;17.35;45.41;99804.78;5033315;28;20040;-78
2023/01/04 06:46:16;;;;;;;28.77;18.17;;;15.90;80.40;;;17.36;45.05;99809.97;4997166;28;20036;-77
2023/01/04 06:48:42;;;;;;;31.50;19.70;;;15.90;80.20;;;17.29;45.07;99803.22;5045471;28;20041;-78
2023/01/04 06:51:08;;;;;;;28.08;18.95;;;15.90;80.20;;;17.31;45.10;99807.28;5001095;28;20053;-78
2023/01/04 06:53:35;;;;;;;26.65;19.10;;;15.90;80.10;;;17.34;45.27;99819.59;5027131;28;20048;-77
2023/01/04 06:56:00;;;;;;;28.67;19.98;;;16.00;80.60;;;17.35;45.53;99807.50;5047132;28;20894;-78
2023/01/04 06:58:27;;;;;;;27.38;18.33;;;16.00;80.50;;;17.34;45.32;99808.63;5013791;28;20048;-78
2023/01/04 07:00:54;;;;;;;29.63;19.77;;;15.90;80.30;;;17.31;45.29;99806.50;5010175;28;20440;-78
2023/01/04 07:03:20;;;;;;;26.48;17.98;;;15.90;80.50;;;17.31;45.32;99801.00;5035393;28;20045;-78
2023/01/04 07:05:46;;;;;;;24.67;16.70;;;15.80;80.40;;;17.31;45.00;99799.06;5047741;28;20033;-78
2023/01/04 07:08:13;;;;;;;28.13;17.25;;;15.80;80.40;;;17.34;45.22;99798.47;5008876;28;20036;-78
2023/01/04 07:10:40;;;;;;;26.02;19.30;;;15.90;80.20;;;17.30;45.45;99789.22;5031990;28;20045;-78
2023/01/04 07:13:06;;;;;;;27.63;17.45;;;15.90;80.20;;;17.29;45.15;99795.00;5027948;28;20055;-78
2023/01/04 07:15:32;;;;;;;26.92;18.83;;;15.90;80.00;;;17.34;45.06;99800.41;5028965;28;20044;-78
2023/01/04 07:17:58;;;;;;;29.30;18.38;;;15.80;79.90;;;17.31;44.93;99795.53;5011223;28;20419;-78
2023/01/04 07:20:24;;;;;;;22.60;15.90;;;15.80;79.90;;;17.29;45.11;99792.25;5016439;28;20124;-77
2023/01/04 07:22:51;;;;;;;25.40;18.52;;;15.80;80.10;;;17.31;44.81;99792.78;5011727;28;20506;-78
2023/01/04 07:25:17;;;;;;;22.63;16.63;;;15.80;79.90;;;17.29;44.89;99792.25;5031162;28;20171;-78
2023/01/04 07:27:43;;;;;;;30.17;18.48;;;15.90;80.00;;;17.28;45.21;99783.22;5033376;28;20042;-78
2023/01/04 07:30:10;;;;;;;22.90;15.68;;;15.80;79.90;;;17.27;44.95;99787.03;5031346;28;20424;-78
2023/01/04 07:32:36;;;;;;;28.15;18.20;;;15.80;79.90;;;17.30;45.07;99789.22;5046862;28;20044;-78
2023/01/04 07:35:03;;;;;;;22.23;16.30;;;15.80;79.90;;;17.31;45.03;99782.63;5033639;28;20562;-78
2023/01/04 07:37:29;;;;;;;25.85;18.23;;;15.80;79.90;;;17.36;44.62;99781.75;5035029;28;20242;-78
2023/01/04 07:39:56;;;;;;;25.85;17.73;;;15.80;79.90;;;17.32;45.00;99789.72;5015988;28;20049;-78
2023/01/04 07:42:22;;;;;;;23.77;17.27;;;15.80;80.20;;;17.34;44.72;99783.97;5050278;28;20041;-77
2023/01/04 07:44:48;;;;;;;25.58;16.73;;;15.80;79.90;;;17.34;45.00;99792.19;5028477;28;20045;-78
2023/01/04 07:47:14;;;;;;;22.17;16.85;;;15.80;80.00;;;17.34;44.77;99792.19;5048855;28;20036;-78
2023/01/04 07:49:40;;;;;;;26.52;18.35;;;15.80;79.90;;;17.33;44.49;99774.09;5011378;28;20480;-78
2023/01/04 07:52:06;;;;;;;28.60;18.60;;;15.80;79.90;;;17.34;44.70;99773.00;5028740;28;20499;-78
2023/01/04 07:54:32;;;;;;;30.38;18.80;;;15.80;79.80;;;17.33;44.71;99779.59;5031017;28;20090;-78
2023/01/04 07:56:59;;;;;;;26.73;17.52;;;15.90;79.80;;;17.35;44.40;99771.88;5031399;28;20306;-78
2023/01/04 07:59:24;;;;;;;23.50;15.68;;;15.80;79.80;;;17.32;44.77;99776.00;5044527;28;20048;-78
2023/01/04 08:01:51;;;;;;;25.45;17.42;;;15.80;79.80;;;17.35;44.45;99767.22;5046187;28;20040;-78
2023/01/04 08:04:20;;;;;;;28.35;19.40;;;15.80;79.80;;;17.36;44.39;99762.53;5032371;28;20164;-78
2023/01/04 08:06:46;;;;;;;26.33;18.48;;;15.90;79.70;;;17.33;44.66;99760.41;5031373;28;20483;-78
2023/01/04 08:09:12;;;;;;;29.20;17.98;;;15.80;79.80;;;17.34;44.75;99757.34;5046375;28;20044;-77
2023/01/04 08:11:40;;;;;;;23.67;17.52;;;15.80;79.90;;;17.35;44.55;99753.50;5032397;28;20047;-78
2023/01/04 08:14:05;;;;;;;29.58;17.73;;;15.80;79.90;;;17.36;44.39;99757.88;5013697;28;20048;-78
2023/01/04 08:16:35;;;;;;;23.55;16.52;;;15.80;79.70;;;17.41;44.57;99753.44;4997161;28;20036;-78
2023/01/04 08:19:21;;;;;;;23.95;17.83;;;15.80;79.90;;;17.42;44.58;99755.88;5030477;28;20041;-78
2023/01/04 08:21:48;;;;;;;25.40;17.25;;;15.80;80.00;;;17.48;44.38;99765.66;5025663;28;20069;-78
2023/01/04 08:24:16;;;;;;;23.88;17.30;;;15.80;79.90;;;17.48;44.35;99756.63;5005432;28;20037;-77
2023/01/04 08:26:43;;;;;;;27.58;18.33;;;15.80;79.90;;;17.51;44.06;99754.09;5010580;28;20046;-77
2023/01/04 08:29:09;;;;;;;26.42;17.45;;;15.80;79.90;;;17.49;44.33;99755.50;5027025;28;20044;-78
2023/01/04 08:31:36;;;;;;;25.40;18.42;;;15.80;79.80;;;17.52;44.06;99758.47;5012043;28;20504;-77
2023/01/04 08:34:04;;;;;;;23.40;15.73;;;15.80;79.80;;;17.56;44.14;99754.03;5043266;28;20095;-78
2023/01/04 08:36:44;;;;;;;28.92;18.35;;;15.80;79.80;;;17.58;44.09;99751.81;5007807;28;20077;-78
2023/01/04 08:39:10;;;;;;;26.23;17.38;;;15.80;79.70;;;17.60;43.87;99746.00;5010700;28;20040;-78
2023/01/04 08:41:49;;;;;;;24.73;16.52;;;15.80;79.90;;;17.63;43.55;99750.91;5009723;28;20087;-78
2023/01/04 08:44:23;;;;;;;26.40;17.42;;;15.80;79.70;;;17.58;44.02;99760.03;5013440;28;20116;-78
2023/01/04 08:46:50;;;;;;;29.73;18.52;;;15.80;79.90;;;17.61;43.97;99744.09;5026231;28;20682;-78
2023/01/04 08:49:16;;;;;;;25.70;16.98;;;15.80;79.60;;;17.64;43.62;99732.53;5004795;28;20049;-78
2023/01/04 08:51:43;;;;;;;23.92;17.70;;;15.80;79.70;;;17.66;43.47;99738.53;4992108;28;20085;-78
2023/01/04 08:54:09;;;;;;;26.25;17.65;;;15.80;79.60;;;17.68;43.90;99731.63;5027066;28;20065;-78
2023/01/04 08:56:36;;;;;;;25.80;18.70;;;15.80;79.60;;;17.74;43.85;99726.88;5029490;28;20453;-77
2023/01/04 08:59:02;;;;;;;26.10;17.45;;;15.90;79.50;;;17.74;43.41;99726.88;5038167;28;20125;-77
2023/01/04 09:01:31;;;;;;;23.52;17.40;;;15.90;79.70;;;17.72;43.99;99720.88;5008257;28;20041;-78
2023/01/04 09:03:57;;;;;;;25.15;17.40;;;15.80;79.90;;;17.75;43.88;99733.97;5022726;28;20519;-78
2023/01/04 09:06:23;;;;;;;29.63;18.88;;;15.90;80.00;;;17.77;43.76;99731.75;5031974;28;20041;-78
2023/01/04 09:08:49;;;;;;;30.83;19.35;;;15.90;79.70;;;17.79;43.45;99729.53;5027481;28;20048;-78
2023/01/04 09:11:18;;;;;;;26.38;18.17;;;15.90;79.60;;;17.84;43.55;99718.50;5029860;28;20041;-78
2023/01/04 09:13:44;;;;;;;30.13;19.40;;;15.90;79.80;;;17.80;43.48;99714.72;5043109;28;20041;-78
2023/01/04 09:16:16;;;;;;;26.52;17.77;;;15.90;80.00;;;17.81;43.66;99718.28;5044774;28;20447;-78
2023/01/04 09:18:42;;;;;;;25.30;19.50;;;15.90;80.00;;;17.82;43.67;99715.25;5000390;28;20136;-77
2023/01/04 09:21:14;;;;;;;24.27;17.27;;;15.90;80.00;;;17.84;43.48;99718.50;5024896;28;20040;-78
2023/01/04 09:23:40;;;;;;;32.20;19.85;;;15.90;80.00;;;17.86;43.21;99699.81;5032951;28;20079;-78
2023/01/04 09:26:16;;;;;;;26.52;18.20;;;15.80;79.90;;;17.83;43.66;99691.34;5042715;28;20548;-78
2023/01/04 09:28:42;;;;;;;27.40;19.15;;;15.90;80.00;;;17.89;43.56;99692.91;5032877;28;20043;-78
2023/01/04 09:31:17;;;;;;;25.75;18.00;;;15.90;79.80;;;17.91;43.51;99685.19;5049082;28;20044;-78
2023/01/04 09:33:43;;;;;;;28.40;19.38;;;15.90;80.00;;;17.93;43.32;99670.03;5031098;28;20048;-78
2023/01/04 09:36:15;;;;;;;28.55;18.98;;;15.90;80.00;;;17.92;43.35;99660.19;5011264;28;20045;-78
2023/01/04 09:38:41;;;;;;;27.30;18.70;;;15.90;80.00;;;18.01;43.49;99660.28;5033765;28;20416;-78
2023/01/04 09:41:13;;;;;;;26.88;18.67;;;15.90;80.00;;;18.03;43.42;99660.00;5015114;28;20052;-78
2023/01/04 09:43:44;;;;;;;25.38;18.40;;;16.10;80.00;;;18.03;43.46;99660.00;5044378;28;20436;-78
2023/01/04 09:46:25;;;;;;;24.35;18.85;;;16.10;79.50;;;18.06;43.39;99649.22;5046179;28;20033;-78
2023/01/04 09:48:53;;;;;;;29.20;18.73;;;16.00;79.60;;;18.09;43.36;99645.06;5030707;28;20052;-78
2023/01/04 09:51:19;;;;;;;26.88;17.65;;;16.10;79.90;;;18.12;43.21;99636.22;4992594;28;20476;-78
2023/01/04 09:53:59;;;;;;;27.50;19.40;;;16.10;79.80;;;18.17;43.13;99633.41;5014429;28;20045;-77
2023/01/04 09:56:30;;;;;;;28.13;19.20;;;16.00;79.70;;;18.13;43.39;99624.13;5016590;28;20037;-78
2023/01/04 09:58:56;;;;;;;26.65;19.35;;;16.00;79.70;;;18.14;43.40;99620.25;4995410;28;20044;-77
2023/01/04 10:01:45;;;;;;;27.88;18.35;;;16.20;79.80;;;18.19;43.19;99606.41;5020775;28;20041;-78
2023/01/04 10:04:38;;;;;;;26.45;18.95;;;16.10;79.70;;;18.22;43.36;99597.59;5016621;28;20041;-78
2023/01/04 10:07:05;;;;;;;26.70;18.08;;;16.20;79.80;;;18.22;43.08;99592.09;5044018;28;20481;-78
2023/01/04 10:09:31;;;;;;;30.05;19.00;;;16.20;79.80;;;18.26;43.13;99592.28;4994213;28;20041;-78
2023/01/04 10:12:09;;;;;;;25.90;18.45;;;16.20;79.60;;;18.28;43.12;99595.56;5028612;28;20048;-78
2023/01/04 10:15:16;;;;;;;26.05;18.90;;;16.20;79.80;;;18.28;43.23;99574.41;5015881;28;20063;-78
2023/01/04 10:18:16;;;;;;;26.92;18.42;;;16.20;79.80;;;18.28;43.18;99563.41;5039494;28;20034;-78
2023/01/04 10:21:10;;;;;;;27.35;18.45;;;16.20;79.80;;;18.28;43.25;99557.09;5018171;28;20041;-78
2023/01/04 10:23:46;;;;;;;26.10;18.48;;;16.30;79.80;;;18.33;43.23;99548.75;5049742;28;20048;-78
2023/01/04 10:26:18;;;;;;;28.20;19.55;;;16.20;79.70;;;18.37;42.91;99547.84;5047718;28;20040;-78
2023/01/04 10:29:05;;;;;;;27.02;18.77;;;16.20;79.80;;;18.36;43.09;99542.66;5016590;28;20044;-78
2023/01/04 10:32:02;;;;;;;26.15;18.50;;;16.30;79.70;;;18.37;43.26;99530.56;5065710;28;20055;-78
2023/01/04 10:34:32;;;;;;;24.80;18.83;;;16.30;79.80;;;18.37;43.26;99530.56;5026370;28;20135;-78
2023/01/04 10:37:02;;;;;;;22.88;18.02;;;16.30;79.70;;;18.38;43.19;99534.91;5016257;28;20051;-78
2023/01/04 10:39:31;;;;;;;25.38;18.70;;;16.30;79.80;;;18.41;42.85;99526.88;5018369;28;20576;-78
2023/01/04 10:42:42;;;;;;;28.00;17.85;;;16.30;79.70;;;18.44;43.01;99523.53;5017774;28;20032;-78
2023/01/04 10:45:26;;;;;;;24.65;18.08;;;16.40;79.70;;;18.43;43.04;99527.38;5062798;28;20033;-78
2023/01/04 10:48:21;;;;;;;20.58;16.88;;;16.30;79.70;;;18.46;42.84;99509.47;5035567;28;20053;-78
2023/01/04 10:50:55;;;;;;;23.88;17.23;;;16.40;79.70;;;18.51;42.86;99511.28;5048109;28;20052;-78
2023/01/04 10:53:52;;;;;;;29.15;19.30;;;16.40;79.70;;;18.50;42.95;99501.44;5034205;28;20419;-78
2023/01/04 10:56:39;;;;;;;24.55;18.05;;;16.40;79.50;;;18.52;42.94;99497.25;5009590;28;20089;-78
2023/01/04 10:59:28;;;;;;;27.67;19.08;;;16.40;79.40;;;18.51;42.79;99486.56;5035776;28;20048;-78
2023/01/04 11:02:15;;;;;;;24.15;17.50;;;16.40;79.40;;;18.53;42.88;99481.59;5018097;28;20536;-78
2023/01/04 11:05:19;;;;;;;25.67;17.15;;;16.40;79.40;;;18.56;42.61;99469.97;5035538;28;20108;-78